»·PEaware :: WAT234 KRNO-KSAN

WAT234 :: KRNO-KSAN

FLIGHT INFORMATION

Flight Status: Arrived
Operator:
Walker Air Transport
More flights by this operator :: More flights under this callsign
Pilot: Eduardo Elias G. (24838)
Aircraft: BOEING 737-800
(B738)
More flights by this aircraft type
Origin: KRNO Reno/Tahoe Intl
United States
Destination: KSAN San Diego Intl-Lindbergh
United States
More flights between these airports :: More routes between these airports
Route: ZEFFR6 DARBI EHF HUULK COMIX2
File this flight plan on PilotEdge
Remarks:
Altitude:
(Current/Filed)
37,000ft
Speed:
(Current/Filed)
463kts
Departed: 29-Aug-20 03:03 PM
Arrived: 29-Aug-20 04:16 PM
Distance/Time
Traveled:
425nm/1:13
Distance/Time
To Go:
Arrived

Flight Plot

Page will automatically refresh every two minutes.

Flight plan parsing failed; only flown route is shown


Map Options




Map Legend


Flown Route
Filed Route
Departure Airport
Arrival Airport
Navaid (VOR, NDB)
Fix

Horizontal Profiles

Position Reports

Time Latitude Longitude Heading Altitude Ground
Speed
29-Aug-20 14:39 39.507853 -119.773820 180 4423ft 0kts
29-Aug-20 14:40 39.507853 -119.773820 180 4423ft 0kts
29-Aug-20 14:41 39.507853 -119.773820 180 4423ft 0kts
29-Aug-20 14:42 39.507853 -119.773820 180 4423ft 0kts
29-Aug-20 14:43 39.507853 -119.773820 180 4423ft 0kts
29-Aug-20 14:44 39.507853 -119.773820 180 4423ft 0kts
29-Aug-20 14:45 39.507853 -119.773820 180 4423ft 0kts
29-Aug-20 14:46 39.507853 -119.773820 180 4423ft 0kts
29-Aug-20 14:47 39.507853 -119.773820 180 4423ft 0kts
29-Aug-20 14:48 39.507853 -119.773820 180 4423ft 0kts
29-Aug-20 14:49 39.507853 -119.773820 180 4423ft 0kts
29-Aug-20 14:50 39.507853 -119.773820 180 4423ft 0kts
29-Aug-20 14:51 39.507853 -119.773820 180 4423ft 0kts
29-Aug-20 14:52 39.507853 -119.773820 180 4423ft 0kts
29-Aug-20 14:53 39.507853 -119.773820 180 4423ft 0kts
29-Aug-20 14:54 39.507860 -119.773819 180 4423ft 0kts
29-Aug-20 14:55 39.508392 -119.774330 96 4423ft 2kts
29-Aug-20 14:56 39.508399 -119.774428 90 4423ft 0kts
29-Aug-20 14:57 39.508399 -119.774428 90 4423ft 0kts
29-Aug-20 14:58 39.508385 -119.773167 90 4423ft 12kts
29-Aug-20 14:59 39.511157 -119.771579 359 4423ft 19kts
29-Aug-20 15:00 39.513536 -119.768898 90 4423ft 12kts
29-Aug-20 15:01 39.513520 -119.767224 90 4423ft 11kts
29-Aug-20 15:02 39.495948 -119.766784 179 4423ft 154kts
29-Aug-20 15:03 39.448629 -119.767245 183 6338ft 188kts
29-Aug-20 15:04 39.384208 -119.769844 179 7513ft 266kts
29-Aug-20 15:05 39.309384 -119.769609 179 10193ft 279kts
29-Aug-20 15:06 39.225870 -119.766360 178 11651ft 343kts
29-Aug-20 15:07 39.125797 -119.762526 178 13925ft 368kts
29-Aug-20 15:08 39.021684 -119.758646 178 16497ft 379kts
29-Aug-20 15:09 38.914856 -119.754657 178 18760ft 391kts
29-Aug-20 15:10 38.804746 -119.750566 178 19315ft 399kts
29-Aug-20 15:11 38.693002 -119.746438 178 21358ft 408kts
29-Aug-20 15:12 38.577554 -119.742181 178 23099ft 419kts
29-Aug-20 15:13 38.459557 -119.737858 178 24666ft 429kts
29-Aug-20 15:14 38.338487 -119.733440 178 26153ft 438kts
29-Aug-20 15:15 38.216925 -119.713332 169 27493ft 446kts
29-Aug-20 15:16 38.093534 -119.684208 169 28737ft 454kts
29-Aug-20 15:17 37.968451 -119.655129 170 29891ft 460kts
29-Aug-20 15:18 37.842121 -119.625674 170 31222ft 460kts
29-Aug-20 15:19 37.716842 -119.596700 171 32619ft 456kts
29-Aug-20 15:20 37.592444 -119.568052 172 33944ft 452kts
29-Aug-20 15:21 37.469327 -119.539793 173 35162ft 448kts
29-Aug-20 15:22 37.346693 -119.511749 173 36261ft 446kts
29-Aug-20 15:23 37.224882 -119.483991 174 36937ft 449kts
29-Aug-20 15:24 37.099971 -119.455621 174 36917ft 460kts
29-Aug-20 15:25 36.974085 -119.427119 175 36887ft 459kts
29-Aug-20 15:26 36.848702 -119.398825 175 36866ft 458kts
29-Aug-20 15:27 36.723429 -119.370651 175 36860ft 458kts
29-Aug-20 15:28 36.597760 -119.342482 175 36856ft 457kts
29-Aug-20 15:29 36.472596 -119.314518 176 36848ft 457kts
29-Aug-20 15:30 36.347689 -119.286703 176 36842ft 456kts
29-Aug-20 15:31 36.222763 -119.258974 176 36845ft 456kts
29-Aug-20 15:32 36.097827 -119.231332 176 36846ft 456kts
29-Aug-20 15:33 35.972891 -119.203766 176 36843ft 455kts
29-Aug-20 15:34 35.848612 -119.176452 177 36832ft 453kts
29-Aug-20 15:35 35.731570 -119.150729 176 36822ft 453kts
29-Aug-20 15:36 35.607184 -119.123589 177 36823ft 453kts
29-Aug-20 15:37 35.483147 -119.092942 169 36821ft 461kts
29-Aug-20 15:38 35.363664 -119.029735 162 36822ft 469kts
29-Aug-20 15:39 35.244688 -118.963383 163 36846ft 468kts
29-Aug-20 15:40 35.126147 -118.897480 163 36898ft 469kts
29-Aug-20 15:41 35.007535 -118.831762 163 36953ft 468kts
29-Aug-20 15:42 34.888716 -118.766245 163 36980ft 468kts
29-Aug-20 15:43 34.770006 -118.700853 163 36976ft 468kts
29-Aug-20 15:44 34.653121 -118.636930 163 36948ft 468kts
29-Aug-20 15:45 34.536755 -118.565991 156 36942ft 476kts
29-Aug-20 15:46 34.423148 -118.483763 157 36949ft 473kts
29-Aug-20 15:47 34.313488 -118.405876 157 36614ft 472kts
29-Aug-20 15:48 34.204552 -118.328396 157 33957ft 472kts
29-Aug-20 15:50 34.095714 -118.251325 157 31759ft 459kts
29-Aug-20 15:51 33.987521 -118.175217 157 29733ft 444kts
29-Aug-20 15:52 33.882148 -118.101348 156 27795ft 430kts
29-Aug-20 15:53 33.779596 -118.031711 156 25905ft 416kts
29-Aug-20 15:54 33.679677 -117.965870 154 24043ft 403kts
29-Aug-20 15:55 33.583275 -117.902353 154 21992ft 388kts
29-Aug-20 15:56 33.493327 -117.841883 153 19685ft 374kts
29-Aug-20 15:57 33.408981 -117.773160 140 17510ft 361kts
29-Aug-20 15:58 33.337133 -117.695064 141 15816ft 336kts
29-Aug-20 15:59 33.267526 -117.620926 141 15043ft 324kts
29-Aug-20 16:00 33.201989 -117.551610 141 14107ft 310kts
29-Aug-20 16:01 33.138324 -117.484809 142 12973ft 301kts
29-Aug-20 16:02 33.070845 -117.428177 147 11877ft 293kts
29-Aug-20 16:03 33.007181 -117.374951 147 10851ft 290kts
29-Aug-20 16:04 32.942969 -117.319746 139 9758ft 283kts
29-Aug-20 16:05 32.893516 -117.244055 129 7672ft 294kts
29-Aug-20 16:06 32.844090 -117.166526 129 6125ft 280kts
29-Aug-20 16:07 32.801675 -117.100134 129 5961ft 230kts
29-Aug-20 16:08 32.770978 -117.035275 108 5715ft 236kts
29-Aug-20 16:08 32.755121 -116.976926 121 5054ft 208kts
29-Aug-20 16:10 32.702768 -116.963155 218 3987ft 175kts
29-Aug-20 16:11 32.690734 -117.014059 282 3148ft 170kts
29-Aug-20 16:11 32.701883 -117.058694 285 2396ft 167kts
29-Aug-20 16:12 32.714156 -117.109384 285 1544ft 148kts
29-Aug-20 16:14 32.726746 -117.161840 287 491ft 140kts
29-Aug-20 16:14 32.734639 -117.194094 287 23ft 59kts
29-Aug-20 16:15 32.734881 -117.199020 252 23ft 0kts
29-Aug-20 16:16 32.734634 -117.199449 206 23ft 11kts
29-Aug-20 16:17 32.733705 -117.199004 149 23ft 0kts
29-Aug-20 16:18 32.733705 -117.199004 149 23ft 0kts

Navigation Log

Ident Type
Flight plan parsing failed, navigation log unavailable